createdAt,value
2017-06-23T00:02:12.406Z,24.79
2017-06-23T00:04:40.797Z,24.69
2017-06-23T00:07:09.106Z,24.68
2017-06-23T00:09:37.043Z,24.64
2017-06-23T00:12:05.314Z,24.59
2017-06-23T00:14:33.017Z,24.64
2017-06-23T00:17:01.023Z,24.62
2017-06-23T00:19:29.007Z,24.61
2017-06-23T00:21:57.191Z,24.60
2017-06-23T00:24:25.877Z,24.60
2017-06-23T00:26:53.714Z,24.53
2017-06-23T00:29:22.000Z,24.51
2017-06-23T00:31:50.413Z,24.51
2017-06-23T00:34:18.307Z,24.51
2017-06-23T00:36:46.363Z,24.46
2017-06-23T00:39:15.342Z,24.43
2017-06-23T00:41:43.198Z,24.38
2017-06-23T00:44:11.583Z,24.34
2017-06-23T00:46:40.087Z,24.32
2017-06-23T00:49:08.384Z,24.38
2017-06-23T00:51:35.900Z,24.39
2017-06-23T00:54:05.006Z,24.31
2017-06-23T00:56:32.709Z,24.28
2017-06-23T00:59:01.367Z,24.30
2017-06-23T01:01:29.536Z,24.26
2017-06-23T01:03:57.422Z,24.27
2017-06-23T01:06:25.632Z,24.24
2017-06-23T01:08:53.720Z,24.19
2017-06-23T01:11:21.533Z,24.21
2017-06-23T01:13:49.308Z,24.19
2017-06-23T01:16:17.607Z,24.16
2017-06-23T01:18:45.939Z,24.16
2017-06-23T01:21:14.624Z,24.16
2017-06-23T01:23:42.486Z,24.14
2017-06-23T01:26:10.667Z,24.13
2017-06-23T01:28:39.831Z,24.14
2017-06-23T01:31:08.438Z,24.15
2017-06-23T01:33:35.900Z,24.16
2017-06-23T01:36:04.450Z,24.15
2017-06-23T01:38:32.464Z,24.16
2017-06-23T01:41:00.388Z,24.02
2017-06-23T01:43:28.943Z,23.94
2017-06-23T01:45:57.389Z,23.92
2017-06-23T01:48:25.456Z,23.90
2017-06-23T01:50:54.023Z,23.89
2017-06-23T01:53:22.126Z,23.79
2017-06-23T01:55:49.834Z,23.70
2017-06-23T01:58:18.070Z,23.65
2017-06-23T02:00:46.243Z,23.68
2017-06-23T02:03:13.787Z,23.62
2017-06-23T02:05:41.591Z,23.66
2017-06-23T02:08:09.342Z,23.54
2017-06-23T02:10:37.382Z,23.53
2017-06-23T02:13:05.680Z,23.52
2017-06-23T02:15:33.299Z,23.53
2017-06-23T02:18:01.005Z,23.58
2017-06-23T02:20:29.026Z,23.56
2017-06-23T02:22:57.710Z,23.59
2017-06-23T02:25:26.046Z,23.58
2017-06-23T02:27:53.811Z,23.58
2017-06-23T02:30:21.579Z,23.57
2017-06-23T02:32:49.399Z,23.53
2017-06-23T02:35:17.414Z,23.50
2017-06-23T02:37:44.898Z,23.38
2017-06-23T02:40:12.466Z,23.37
2017-06-23T02:42:40.211Z,23.12
2017-06-23T02:45:08.232Z,23.12
2017-06-23T02:47:36.107Z,23.15
2017-06-23T02:50:04.496Z,23.15
2017-06-23T02:52:33.446Z,23.00
2017-06-23T02:55:01.263Z,23.00
2017-06-23T02:57:29.364Z,23.08
2017-06-23T02:59:57.112Z,23.11
2017-06-23T03:02:26.316Z,23.09
2017-06-23T03:04:55.003Z,23.02
2017-06-23T03:07:23.182Z,23.08
2017-06-23T03:09:50.808Z,23.12
2017-06-23T03:12:18.618Z,23.07
2017-06-23T03:14:46.324Z,23.11
2017-06-23T03:17:14.206Z,23.09
2017-06-23T03:19:41.855Z,23.09
2017-06-23T03:22:10.181Z,23.08
2017-06-23T03:24:37.866Z,23.09
2017-06-23T03:27:05.623Z,23.09
2017-06-23T03:29:33.512Z,23.11
2017-06-23T03:32:01.239Z,23.18
2017-06-23T03:34:29.115Z,23.19
2017-06-23T03:36:57.590Z,23.16
2017-06-23T03:39:26.066Z,23.15
2017-06-23T03:41:54.235Z,23.09
2017-06-23T03:44:21.876Z,23.16
2017-06-23T03:46:49.376Z,23.12
2017-06-23T03:49:17.607Z,23.15
2017-06-23T03:51:45.715Z,23.10
2017-06-23T03:54:13.325Z,23.08
2017-06-23T03:56:41.246Z,23.09
2017-06-23T03:59:08.912Z,23.10
2017-06-23T04:01:38.423Z,23.11
2017-06-23T04:04:07.098Z,23.11
2017-06-23T04:06:35.187Z,23.12
2017-06-23T04:09:02.847Z,23.09
2017-06-23T04:11:30.323Z,23.09
2017-06-23T04:13:57.834Z,23.07
2017-06-23T04:16:25.827Z,23.10
2017-06-23T04:18:53.502Z,23.07
2017-06-23T04:21:21.095Z,23.10
2017-06-23T04:23:48.800Z,23.08
2017-06-23T04:26:16.574Z,23.06
2017-06-23T04:28:44.076Z,23.06
2017-06-23T04:31:12.419Z,23.06
2017-06-23T04:33:40.799Z,23.08
2017-06-23T04:36:09.077Z,23.07
2017-06-23T04:38:37.401Z,23.10
2017-06-23T04:41:05.349Z,23.08
2017-06-23T04:43:33.196Z,23.09
2017-06-23T04:46:01.060Z,23.13
2017-06-23T04:48:29.843Z,23.10
2017-06-23T04:50:57.511Z,23.12
2017-06-23T04:53:25.575Z,23.13
2017-06-23T04:55:53.447Z,23.12
2017-06-23T04:58:21.116Z,23.16
2017-06-23T05:00:48.884Z,23.19
2017-06-23T05:03:16.652Z,23.14
2017-06-23T05:05:44.456Z,23.15
2017-06-23T05:08:13.195Z,23.15
2017-06-23T05:10:41.171Z,23.15
2017-06-23T05:13:08.714Z,23.16
2017-06-23T05:15:36.456Z,23.21
2017-06-23T05:18:04.879Z,23.20
2017-06-23T05:20:32.596Z,23.19
2017-06-23T05:23:00.459Z,23.24
2017-06-23T05:25:28.375Z,23.20
2017-06-23T05:27:56.160Z,23.19
2017-06-23T05:30:23.674Z,23.18
2017-06-23T05:32:51.476Z,23.23
2017-06-23T05:35:19.536Z,23.21
2017-06-23T05:37:47.786Z,23.24
2017-06-23T05:40:15.864Z,23.25
2017-06-23T05:42:43.432Z,23.27
2017-06-23T05:45:11.210Z,23.28
2017-06-23T05:47:39.497Z,23.29
2017-06-23T05:50:07.260Z,23.27
2017-06-23T05:52:34.771Z,23.29
2017-06-23T05:55:02.875Z,23.27
2017-06-23T05:57:30.556Z,23.27
2017-06-23T05:59:58.068Z,23.27
2017-06-23T06:02:26.840Z,23.26
2017-06-23T06:04:54.871Z,23.28
2017-06-23T06:07:23.491Z,23.30
2017-06-23T06:09:51.839Z,23.32
2017-06-23T06:12:19.915Z,23.31
2017-06-23T06:14:47.809Z,23.32
2017-06-23T06:17:15.294Z,23.31
2017-06-23T06:19:43.536Z,23.34
2017-06-23T06:22:11.558Z,23.34
2017-06-23T06:24:39.967Z,23.35
2017-06-23T06:27:08.346Z,23.34
2017-06-23T06:29:36.211Z,23.32
2017-06-23T06:32:04.086Z,23.28
2017-06-23T06:34:31.654Z,23.25
2017-06-23T06:37:00.442Z,23.22
2017-06-23T06:39:28.037Z,23.20
2017-06-23T06:41:55.943Z,23.15
2017-06-23T06:44:24.295Z,23.20
2017-06-23T06:46:52.486Z,23.18
2017-06-23T06:49:20.178Z,23.19
2017-06-23T06:51:48.048Z,23.20
2017-06-23T06:54:16.531Z,23.21
2017-06-23T06:56:44.101Z,23.13
2017-06-23T06:59:12.051Z,23.15
2017-06-23T07:01:40.442Z,23.15
2017-06-23T07:04:08.825Z,23.17
2017-06-23T07:06:36.924Z,23.12
2017-06-23T07:09:05.377Z,23.10
2017-06-23T07:11:33.499Z,23.10
2017-06-23T07:14:01.932Z,23.15
2017-06-23T07:16:30.359Z,23.13
2017-06-23T07:18:58.511Z,23.18
2017-06-23T07:21:27.378Z,23.14
2017-06-23T07:23:55.856Z,23.11
2017-06-23T07:26:24.134Z,23.07
2017-06-23T07:28:52.216Z,23.07
2017-06-23T07:31:20.900Z,23.08
2017-06-23T07:33:49.583Z,23.10
2017-06-23T07:36:17.347Z,23.11
2017-06-23T07:38:46.194Z,23.19
2017-06-23T07:41:14.726Z,23.23
2017-06-23T07:43:43.104Z,23.26
2017-06-23T07:46:11.504Z,23.30
2017-06-23T07:48:40.783Z,23.31
2017-06-23T07:51:09.174Z,23.35
2017-06-23T07:53:37.033Z,23.38
2017-06-23T07:56:04.697Z,23.41
2017-06-23T07:58:32.817Z,23.41
2017-06-23T08:01:00.949Z,23.44
2017-06-23T08:03:28.703Z,23.46
2017-06-23T08:05:56.212Z,23.50
2017-06-23T08:08:24.123Z,23.53
2017-06-23T08:10:51.898Z,23.59
2017-06-23T08:13:19.655Z,23.55
2017-06-23T08:15:47.208Z,23.57
2017-06-23T08:18:14.643Z,23.56
2017-06-23T08:20:43.005Z,23.56
2017-06-23T08:23:10.767Z,23.58
2017-06-23T08:25:38.652Z,23.58
2017-06-23T08:28:06.759Z,23.59
2017-06-23T08:30:34.993Z,23.59
2017-06-23T08:33:02.813Z,23.61
2017-06-23T08:35:30.514Z,23.63
2017-06-23T08:37:58.662Z,23.64
2017-06-23T08:40:26.404Z,23.67
2017-06-23T08:42:55.079Z,23.69
2017-06-23T08:45:23.404Z,23.66
2017-06-23T08:47:51.267Z,23.65
2017-06-23T08:50:19.666Z,23.77
2017-06-23T08:52:47.942Z,23.80
2017-06-23T08:55:16.966Z,23.87
2017-06-23T08:57:45.274Z,23.89
2017-06-23T09:00:13.398Z,24.01
2017-06-23T09:02:41.708Z,24.10
2017-06-23T09:05:09.805Z,24.08
2017-06-23T09:07:38.540Z,24.04
2017-06-23T09:10:06.372Z,24.44
2017-06-23T09:12:34.014Z,24.51
2017-06-23T09:15:01.486Z,24.43
2017-06-23T09:17:30.034Z,24.62
2017-06-23T09:19:57.747Z,24.70
2017-06-23T09:22:25.359Z,24.76
2017-06-23T09:24:52.807Z,24.82
2017-06-23T09:27:20.370Z,24.92
2017-06-23T09:29:48.180Z,24.92
2017-06-23T09:32:15.752Z,25.03
2017-06-23T09:34:43.231Z,25.00
2017-06-23T09:37:11.131Z,25.13
2017-06-23T09:39:38.817Z,25.18
2017-06-23T09:42:06.916Z,25.22
2017-06-23T09:44:35.650Z,25.27
2017-06-23T09:47:04.300Z,25.20
2017-06-23T09:49:31.740Z,25.29
2017-06-23T09:51:59.489Z,25.38
2017-06-23T09:54:27.991Z,25.36
2017-06-23T09:56:57.197Z,25.41
2017-06-23T09:59:26.135Z,25.51
2017-06-23T10:01:54.893Z,25.55
2017-06-23T10:04:22.994Z,26.79
2017-06-23T10:06:51.428Z,26.46
2017-06-23T10:09:19.192Z,25.96
2017-06-23T10:11:47.237Z,25.70
2017-06-23T10:14:15.495Z,25.62
2017-06-23T10:16:44.012Z,25.56
2017-06-23T10:19:12.485Z,25.48
2017-06-23T10:21:40.770Z,25.47
2017-06-23T10:24:11.300Z,25.44
2017-06-23T10:26:39.151Z,25.39
2017-06-23T10:29:07.896Z,25.37
2017-06-23T10:31:35.823Z,25.36
2017-06-23T10:34:04.275Z,25.35
2017-06-23T10:36:32.687Z,25.33
2017-06-23T10:39:00.952Z,25.35
2017-06-23T10:41:28.878Z,25.34
2017-06-23T10:43:57.105Z,25.35
2017-06-23T10:46:25.184Z,25.36
2017-06-23T10:48:53.559Z,25.40
2017-06-23T10:51:21.427Z,25.58
2017-06-23T10:53:49.503Z,25.61
2017-06-23T10:56:17.039Z,25.65
2017-06-23T10:58:46.014Z,25.68
2017-06-23T11:01:14.635Z,25.73
2017-06-23T11:03:43.819Z,25.75
2017-06-23T11:06:13.236Z,25.79
2017-06-23T11:08:42.139Z,25.79
2017-06-23T11:11:10.046Z,25.73
2017-06-23T11:13:38.497Z,25.69
2017-06-23T11:16:08.195Z,25.69
2017-06-23T11:18:36.775Z,25.69
2017-06-23T11:21:04.846Z,25.80
2017-06-23T11:23:32.539Z,25.88
2017-06-23T11:26:00.280Z,25.90
2017-06-23T11:28:29.981Z,25.91
2017-06-23T11:30:59.119Z,25.76
2017-06-23T11:33:26.578Z,25.83
2017-06-23T11:35:54.888Z,25.76
2017-06-23T11:38:23.505Z,25.79
2017-06-23T11:40:50.984Z,25.70
2017-06-23T11:43:19.064Z,25.68
2017-06-23T11:45:47.315Z,25.65
2017-06-23T11:48:16.415Z,25.61
2017-06-23T11:50:45.315Z,25.65
2017-06-23T11:53:13.514Z,25.61
2017-06-23T11:55:41.541Z,25.58
2017-06-23T11:58:09.422Z,25.68
2017-06-23T12:00:37.412Z,25.61
2017-06-23T12:03:05.531Z,25.61
2017-06-23T12:05:33.135Z,25.64
2017-06-23T12:08:01.196Z,25.66
2017-06-23T12:10:29.930Z,25.67
2017-06-23T12:13:00.072Z,25.67
2017-06-23T12:15:27.981Z,25.69
2017-06-23T12:17:56.350Z,25.70
2017-06-23T12:20:24.637Z,25.68
2017-06-23T12:22:52.593Z,25.81
2017-06-23T12:25:20.977Z,25.77
2017-06-23T12:27:49.062Z,25.69
2017-06-23T12:30:17.202Z,25.74
2017-06-23T12:32:45.054Z,25.81
2017-06-23T12:35:12.976Z,25.90
2017-06-23T12:37:41.247Z,26.02
2017-06-23T12:40:09.223Z,26.01
2017-06-23T12:42:37.397Z,26.07
2017-06-23T12:45:07.014Z,25.91
2017-06-23T12:47:34.758Z,25.92
2017-06-23T12:50:03.045Z,26.04
2017-06-23T12:52:30.498Z,26.21
2017-06-23T12:54:58.635Z,26.16
2017-06-23T12:57:26.423Z,26.09
2017-06-23T12:59:54.475Z,26.18
2017-06-23T13:02:22.954Z,26.35
2017-06-23T13:04:50.792Z,26.43
2017-06-23T13:07:18.328Z,26.47
2017-06-23T13:09:47.080Z,26.51
2017-06-23T13:12:15.182Z,26.51
2017-06-23T13:14:43.435Z,26.61
2017-06-23T13:17:11.267Z,26.67
2017-06-23T13:19:39.091Z,26.68
2017-06-23T13:22:07.042Z,26.69
2017-06-23T13:24:35.337Z,26.72
2017-06-23T13:27:02.900Z,26.75
2017-06-23T13:29:31.395Z,26.88
2017-06-23T13:31:59.246Z,26.82
2017-06-23T13:34:28.011Z,26.81
2017-06-23T13:36:56.164Z,26.88
2017-06-23T13:39:23.916Z,26.96
2017-06-23T13:41:51.699Z,26.99
2017-06-23T13:44:19.211Z,26.96
2017-06-23T13:46:48.607Z,26.96
2017-06-23T13:49:17.607Z,26.97
2017-06-23T13:51:45.463Z,26.98
2017-06-23T13:54:14.008Z,26.89
2017-06-23T13:56:41.844Z,26.86
2017-06-23T13:59:09.588Z,26.82
2017-06-23T14:01:40.212Z,26.83
2017-06-23T14:04:07.983Z,26.83
2017-06-23T14:06:36.307Z,26.82
2017-06-23T14:09:04.226Z,26.80
2017-06-23T14:11:32.934Z,26.79
2017-06-23T14:14:01.907Z,26.79
2017-06-23T14:16:29.908Z,26.77
2017-06-23T14:18:57.717Z,26.75
2017-06-23T14:21:25.523Z,26.74
2017-06-23T14:23:53.881Z,26.73
2017-06-23T14:26:22.474Z,26.71
2017-06-23T14:28:50.607Z,26.69
2017-06-23T14:31:18.392Z,26.68
2017-06-23T14:33:46.053Z,26.65
2017-06-23T14:36:14.508Z,26.67
2017-06-23T14:38:42.314Z,26.66
2017-06-23T14:41:10.401Z,26.65
2017-06-23T14:43:38.392Z,26.67
2017-06-23T14:46:05.971Z,26.67
2017-06-23T14:48:34.532Z,26.67
2017-06-23T14:51:02.052Z,26.67
2017-06-23T14:53:29.917Z,26.66
2017-06-23T14:55:57.519Z,26.67
2017-06-23T14:58:25.425Z,26.68
2017-06-23T15:00:53.446Z,26.67
2017-06-23T15:03:21.831Z,26.67
2017-06-23T15:05:50.204Z,26.66
2017-06-23T15:08:18.065Z,26.68
2017-06-23T15:10:46.251Z,26.67
2017-06-23T15:13:15.139Z,26.67
2017-06-23T15:15:42.898Z,26.68
2017-06-23T15:18:10.978Z,26.70
2017-06-23T15:20:39.080Z,26.71
2017-06-23T15:23:06.600Z,26.72
2017-06-23T15:25:35.091Z,26.71
2017-06-23T15:28:03.167Z,26.73
2017-06-23T15:30:30.774Z,26.74
2017-06-23T15:32:59.002Z,26.74
2017-06-23T15:35:26.768Z,26.77
2017-06-23T15:37:54.536Z,26.77
2017-06-23T15:40:22.715Z,26.76
2017-06-23T15:42:50.367Z,26.77
2017-06-23T15:45:18.406Z,26.77
2017-06-23T15:47:47.000Z,26.77
2017-06-23T15:50:14.994Z,26.78
2017-06-23T15:52:43.376Z,26.79
2017-06-23T15:55:11.351Z,26.80
2017-06-23T15:57:40.123Z,26.81
2017-06-23T16:00:08.943Z,26.81
2017-06-23T16:02:36.769Z,26.82
2017-06-23T16:05:04.558Z,26.86
2017-06-23T16:07:32.102Z,26.87
2017-06-23T16:09:59.570Z,26.84
2017-06-23T16:12:27.535Z,26.83
2017-06-23T16:14:56.026Z,26.84
2017-06-23T16:17:24.099Z,26.84
2017-06-23T16:19:51.786Z,26.82
2017-06-23T16:22:19.930Z,26.81
2017-06-23T16:24:48.527Z,26.82
2017-06-23T16:27:16.072Z,26.80
2017-06-23T16:29:44.462Z,26.81
2017-06-23T16:32:12.455Z,26.81
2017-06-23T16:34:41.123Z,26.79
2017-06-23T16:37:09.293Z,26.79
2017-06-23T16:39:37.677Z,26.79
2017-06-23T16:42:06.875Z,26.79
2017-06-23T16:44:35.692Z,26.78
2017-06-23T16:47:03.943Z,26.80
2017-06-23T16:49:32.167Z,26.79
2017-06-23T16:52:00.087Z,26.80
2017-06-23T16:54:28.423Z,26.80
2017-06-23T16:56:56.846Z,26.79
2017-06-23T16:59:25.030Z,26.81
2017-06-23T17:01:52.784Z,26.81
2017-06-23T17:04:20.257Z,26.81
2017-06-23T17:06:48.007Z,26.80
2017-06-23T17:09:16.570Z,26.81
2017-06-23T17:11:44.974Z,26.81
2017-06-23T17:14:13.434Z,26.82
2017-06-23T17:16:41.432Z,26.84
2017-06-23T17:19:08.987Z,26.85
2017-06-23T17:21:37.576Z,26.87
2017-06-23T17:24:06.059Z,26.88
2017-06-23T17:26:33.951Z,26.90
2017-06-23T17:29:01.480Z,26.90
2017-06-23T17:31:29.062Z,26.90
2017-06-23T17:33:58.033Z,26.90
2017-06-23T17:36:26.503Z,26.92
2017-06-23T17:38:55.102Z,26.92
2017-06-23T17:41:23.075Z,26.92
2017-06-23T17:43:50.843Z,26.93
2017-06-23T17:46:19.630Z,26.92
2017-06-23T17:48:47.940Z,26.91
2017-06-23T17:51:16.896Z,26.91
2017-06-23T17:53:44.581Z,26.91
2017-06-23T17:56:13.758Z,26.91
2017-06-23T17:58:42.963Z,26.90
2017-06-23T18:01:10.729Z,26.91
2017-06-23T18:03:38.374Z,26.91
2017-06-23T18:06:06.346Z,26.91
2017-06-23T18:08:34.576Z,26.91
2017-06-23T18:11:02.712Z,26.89
2017-06-23T18:13:31.092Z,26.89
2017-06-23T18:15:59.444Z,26.89
2017-06-23T18:18:27.762Z,26.89
2017-06-23T18:20:56.231Z,26.89
2017-06-23T18:23:24.743Z,26.89
2017-06-23T18:25:52.738Z,26.90
2017-06-23T18:28:21.159Z,26.90
2017-06-23T18:30:48.993Z,26.94
2017-06-23T18:33:17.407Z,27.04
2017-06-23T18:35:46.288Z,26.94
2017-06-23T18:38:14.374Z,27.09
2017-06-23T18:40:41.874Z,27.05
2017-06-23T18:43:10.038Z,27.11
2017-06-23T18:45:38.065Z,27.12
2017-06-23T18:48:06.191Z,27.14
2017-06-23T18:50:34.837Z,27.04
2017-06-23T18:53:02.295Z,26.92
2017-06-23T18:55:30.273Z,26.74
2017-06-23T18:57:57.814Z,26.60
2017-06-23T19:00:25.624Z,26.57
2017-06-23T19:02:53.415Z,26.57
2017-06-23T19:05:21.907Z,26.46
2017-06-23T19:07:49.967Z,26.40
2017-06-23T19:10:18.470Z,26.40
2017-06-23T19:12:46.038Z,26.39
2017-06-23T19:15:14.156Z,26.35
2017-06-23T19:17:41.955Z,26.23
2017-06-23T19:20:09.991Z,26.20
2017-06-23T19:22:38.250Z,26.07
2017-06-23T19:25:05.925Z,26.11
2017-06-23T19:27:33.622Z,26.13
2017-06-23T19:30:02.367Z,26.08
2017-06-23T19:32:30.572Z,26.01
2017-06-23T19:34:58.676Z,25.68
2017-06-23T19:37:26.786Z,25.84
2017-06-23T19:39:54.571Z,25.85
2017-06-23T19:42:22.618Z,25.80
2017-06-23T19:44:50.374Z,25.73
2017-06-23T19:47:18.368Z,25.65
2017-06-23T19:49:46.431Z,25.63
2017-06-23T19:52:14.361Z,25.55
2017-06-23T19:54:42.274Z,25.52
2017-06-23T19:57:10.055Z,25.46
2017-06-23T19:59:37.926Z,25.47
2017-06-23T20:02:05.417Z,25.41
2017-06-23T20:04:34.107Z,25.38
2017-06-23T20:07:02.740Z,25.34
2017-06-23T20:09:30.227Z,25.37
2017-06-23T20:11:57.948Z,25.41
2017-06-23T20:14:25.988Z,25.42
2017-06-23T20:16:55.015Z,25.48
2017-06-23T20:19:22.815Z,25.49
2017-06-23T20:21:50.787Z,25.46
2017-06-23T20:24:18.614Z,25.51
2017-06-23T20:26:47.111Z,25.53
2017-06-23T20:29:15.490Z,25.54
2017-06-23T20:31:43.872Z,25.60
2017-06-23T20:34:12.751Z,25.61
2017-06-23T20:36:40.363Z,25.65
2017-06-23T20:39:08.799Z,25.61
2017-06-23T20:41:37.495Z,25.62
2017-06-23T20:44:06.103Z,25.66
2017-06-23T20:46:34.752Z,25.65
2017-06-23T20:49:02.919Z,25.66
2017-06-23T20:51:30.908Z,25.73
2017-06-23T20:53:59.480Z,25.73
2017-06-23T20:56:28.283Z,25.74
2017-06-23T20:58:57.116Z,25.75
2017-06-23T21:01:25.301Z,25.75
2017-06-23T21:03:53.058Z,25.72
2017-06-23T21:06:21.390Z,25.67
2017-06-23T21:08:49.162Z,25.69
2017-06-23T21:11:18.086Z,25.75
2017-06-23T21:13:46.332Z,25.86
2017-06-23T21:16:14.959Z,25.75
2017-06-23T21:18:42.884Z,25.71
2017-06-23T21:21:10.735Z,25.73
2017-06-23T21:23:38.772Z,25.78
2017-06-23T21:26:07.096Z,25.73
2017-06-23T21:28:35.783Z,25.80
2017-06-23T21:31:03.946Z,25.77
2017-06-23T21:33:32.339Z,25.73
2017-06-23T21:36:00.311Z,25.77
2017-06-23T21:38:29.379Z,25.81
2017-06-23T21:41:09.411Z,25.71
2017-06-23T21:43:37.280Z,25.64
2017-06-23T21:46:04.987Z,25.75
2017-06-23T21:48:33.249Z,25.66
2017-06-23T21:51:01.729Z,25.55
2017-06-23T21:53:29.723Z,25.58
2017-06-23T21:55:57.278Z,25.55
2017-06-23T21:58:25.014Z,25.43
2017-06-23T22:00:52.819Z,25.40
2017-06-23T22:03:21.599Z,25.58
2017-06-23T22:05:50.496Z,25.43
2017-06-23T22:08:18.976Z,25.34
2017-06-23T22:10:47.400Z,25.24
2017-06-23T22:13:16.038Z,25.27
2017-06-23T22:15:44.108Z,25.26
2017-06-23T22:18:11.786Z,25.17
2017-06-23T22:20:39.952Z,24.96
2017-06-23T22:23:09.635Z,24.84
2017-06-23T22:25:37.227Z,24.88
2017-06-23T22:28:05.231Z,24.81
2017-06-23T22:30:34.363Z,24.83
2017-06-23T22:33:02.751Z,24.80
2017-06-23T22:35:31.054Z,24.89
2017-06-23T22:37:59.020Z,24.88
2017-06-23T22:40:28.288Z,24.83
2017-06-23T22:42:56.389Z,24.83
2017-06-23T22:45:25.451Z,24.82
2017-06-23T22:47:53.815Z,24.74
2017-06-23T22:50:22.552Z,24.66
2017-06-23T22:52:50.008Z,24.63
2017-06-23T22:55:19.070Z,24.58
2017-06-23T22:57:48.262Z,24.48
2017-06-23T23:00:17.132Z,24.34
2017-06-23T23:02:46.232Z,24.22
2017-06-23T23:05:14.645Z,24.08
2017-06-23T23:07:42.779Z,24.05
2017-06-23T23:10:11.337Z,23.98
2017-06-23T23:12:40.330Z,23.99
2017-06-23T23:15:08.649Z,24.04
2017-06-23T23:17:36.626Z,24.08
2017-06-23T23:20:04.460Z,24.09
2017-06-23T23:22:32.555Z,24.08
2017-06-23T23:25:00.799Z,24.04
2017-06-23T23:27:29.179Z,24.01
2017-06-23T23:29:56.945Z,23.96
2017-06-23T23:32:25.018Z,23.90
2017-06-23T23:34:52.802Z,23.83
2017-06-23T23:37:21.164Z,23.81
2017-06-23T23:39:49.540Z,23.70
2017-06-23T23:42:17.823Z,23.64
2017-06-23T23:44:46.795Z,23.70
2017-06-23T23:47:14.987Z,23.74
2017-06-23T23:49:44.730Z,23.69
2017-06-23T23:52:12.963Z,23.66
2017-06-23T23:54:41.342Z,23.65
2017-06-23T23:57:09.978Z,23.64
2017-06-23T23:59:39.078Z,23.65
